createdAt,value
2022-11-13T00:00:05.702Z,12.91
2022-11-13T00:02:34.281Z,12.91
2022-11-13T00:05:00.717Z,12.91
2022-11-13T00:07:27.962Z,12.90
2022-11-13T00:09:55.614Z,12.90
2022-11-13T00:12:22.089Z,12.91
2022-11-13T00:14:48.436Z,12.92
2022-11-13T00:17:15.781Z,12.90
2022-11-13T00:19:42.088Z,12.89
2022-11-13T00:22:08.402Z,12.88
2022-11-13T00:24:34.925Z,12.86
2022-11-13T00:27:01.294Z,12.84
2022-11-13T00:29:27.845Z,12.83
2022-11-13T00:31:54.177Z,12.81
2022-11-13T00:34:41.481Z,12.77
2022-11-13T00:37:06.897Z,12.75
2022-11-13T00:39:33.398Z,12.72
2022-11-13T00:41:59.813Z,12.68
2022-11-13T00:44:26.330Z,12.65
2022-11-13T00:46:52.674Z,12.59
2022-11-13T00:49:18.972Z,12.57
2022-11-13T00:51:45.518Z,12.54
2022-11-13T00:54:11.881Z,12.52
2022-11-13T00:56:38.396Z,12.49
2022-11-13T00:59:04.820Z,12.48
2022-11-13T01:01:31.366Z,12.46
2022-11-13T01:03:57.956Z,12.43
2022-11-13T01:06:26.595Z,12.42
2022-11-13T01:08:58.297Z,12.40
2022-11-13T01:11:28.025Z,12.39
2022-11-13T01:13:56.242Z,12.37
2022-11-13T01:16:25.230Z,12.37
2022-11-13T01:18:55.328Z,12.32
2022-11-13T01:21:24.898Z,12.30
2022-11-13T01:23:51.367Z,12.28
2022-11-13T01:26:24.781Z,12.27
2022-11-13T01:28:51.328Z,12.26
2022-11-13T01:31:21.213Z,12.23
2022-11-13T01:33:48.740Z,12.21
2022-11-13T01:36:24.534Z,12.18
2022-11-13T01:38:51.740Z,12.16
2022-11-13T01:41:23.998Z,12.13
2022-11-13T01:43:52.002Z,12.11
2022-11-13T01:46:28.751Z,12.07
2022-11-13T01:49:12.311Z,12.06
2022-11-13T01:51:47.754Z,12.06
2022-11-13T01:54:20.863Z,12.04
2022-11-13T01:56:48.228Z,12.04
2022-11-13T01:59:20.202Z,12.00
2022-11-13T02:01:46.692Z,11.98
2022-11-13T02:04:13.232Z,11.97
2022-11-13T02:06:44.703Z,11.95
2022-11-13T02:09:13.908Z,11.93
2022-11-13T02:11:41.310Z,11.92
2022-11-13T02:14:09.457Z,11.91
2022-11-13T02:16:37.778Z,11.90
2022-11-13T02:19:11.203Z,11.88
2022-11-13T02:21:52.848Z,11.85
2022-11-13T02:24:29.252Z,11.81
2022-11-13T02:27:01.254Z,11.79
2022-11-13T02:29:27.753Z,11.77
2022-11-13T02:31:54.120Z,11.75
2022-11-13T02:34:20.524Z,11.72
2022-11-13T02:36:47.213Z,11.70
2022-11-13T02:39:14.351Z,11.67
2022-11-13T02:41:41.097Z,11.65
2022-11-13T02:44:08.757Z,11.62
2022-11-13T02:46:36.297Z,11.62
2022-11-13T02:49:02.917Z,11.59
2022-11-13T02:51:29.703Z,11.56
2022-11-13T02:53:56.325Z,11.54
2022-11-13T02:56:22.842Z,11.52
2022-11-13T02:58:49.184Z,11.52
2022-11-13T03:01:15.592Z,11.49
2022-11-13T03:03:57.171Z,11.46
2022-11-13T03:06:24.249Z,11.45
2022-11-13T03:08:50.548Z,11.41
2022-11-13T03:11:17.205Z,11.37
2022-11-13T03:13:43.562Z,11.34
2022-11-13T03:16:13.190Z,11.30
2022-11-13T03:18:40.223Z,11.28
2022-11-13T03:21:09.370Z,11.24
2022-11-13T03:23:35.947Z,11.21
2022-11-13T03:26:12.367Z,11.17
2022-11-13T03:28:38.713Z,11.16
2022-11-13T03:31:05.744Z,11.13
2022-11-13T03:33:32.528Z,11.10
2022-11-13T03:35:59.008Z,11.06
2022-11-13T03:38:26.085Z,11.02
2022-11-13T03:40:53.009Z,10.99
2022-11-13T03:43:19.514Z,10.96
2022-11-13T03:45:47.034Z,10.92
2022-11-13T03:48:14.993Z,10.89
2022-11-13T03:50:47.139Z,10.84
2022-11-13T03:53:14.719Z,10.84
2022-11-13T03:55:43.001Z,10.80
2022-11-13T03:58:11.428Z,10.77
2022-11-13T04:00:41.617Z,10.77
2022-11-13T04:03:08.292Z,10.78
2022-11-13T04:05:34.787Z,10.77
2022-11-13T04:08:01.135Z,10.77
2022-11-13T04:10:27.883Z,10.76
2022-11-13T04:12:54.209Z,10.75
2022-11-13T04:15:20.762Z,10.75
2022-11-13T04:17:48.077Z,10.74
2022-11-13T04:20:14.725Z,10.72
2022-11-13T04:22:41.253Z,10.71
2022-11-13T04:25:09.361Z,10.71
2022-11-13T04:27:35.812Z,10.68
2022-11-13T04:30:03.391Z,10.65
2022-11-13T04:32:29.944Z,10.64
2022-11-13T04:34:56.302Z,10.59
2022-11-13T04:37:22.827Z,10.54
2022-11-13T04:39:49.321Z,10.51
2022-11-13T04:42:34.987Z,10.48
2022-11-13T04:45:01.360Z,10.46
2022-11-13T04:47:27.693Z,10.44
2022-11-13T04:49:53.985Z,10.42
2022-11-13T04:52:21.380Z,10.40
2022-11-13T04:54:47.699Z,10.40
2022-11-13T04:57:14.091Z,10.39
2022-11-13T04:59:40.442Z,10.37
2022-11-13T05:02:07.132Z,10.36
2022-11-13T05:04:33.637Z,10.34
2022-11-13T05:07:00.227Z,10.34
2022-11-13T05:09:26.647Z,10.33
2022-11-13T05:11:52.955Z,10.33
2022-11-13T05:14:19.306Z,10.32
2022-11-13T05:16:45.772Z,10.31
2022-11-13T05:19:12.089Z,10.30
2022-11-13T05:21:39.851Z,10.30
2022-11-13T05:24:06.824Z,10.28
2022-11-13T05:26:33.247Z,10.29
2022-11-13T05:29:00.533Z,10.28
2022-11-13T05:31:27.301Z,10.28
2022-11-13T05:33:55.018Z,10.26
2022-11-13T05:36:22.255Z,10.25
2022-11-13T05:38:49.045Z,10.23
2022-11-13T05:41:17.886Z,10.22
2022-11-13T05:43:44.685Z,10.20
2022-11-13T05:46:17.693Z,10.18
2022-11-13T05:48:44.885Z,10.18
2022-11-13T05:51:18.500Z,10.16
2022-11-13T05:53:45.241Z,10.17
2022-11-13T05:56:20.734Z,10.15
2022-11-13T05:58:47.973Z,10.15
2022-11-13T06:01:34.637Z,10.11
2022-11-13T06:04:01.491Z,10.10
2022-11-13T06:06:29.607Z,10.07
2022-11-13T06:08:57.287Z,10.03
2022-11-13T06:11:25.880Z,10.01
2022-11-13T06:13:53.203Z,10.00
2022-11-13T06:16:25.833Z,10.02
2022-11-13T06:18:57.034Z,9.98
2022-11-13T06:21:25.849Z,9.98
2022-11-13T06:23:52.900Z,9.96
2022-11-13T06:26:22.639Z,9.93
2022-11-13T06:28:49.317Z,9.94
2022-11-13T06:31:20.768Z,9.91
2022-11-13T06:33:47.679Z,9.91
2022-11-13T06:36:35.636Z,9.89
2022-11-13T06:39:05.057Z,9.91
2022-11-13T06:41:32.531Z,9.89
2022-11-13T06:44:02.941Z,9.88
2022-11-13T06:46:30.000Z,9.88
2022-11-13T06:48:56.929Z,9.86
2022-11-13T06:51:27.127Z,9.84
2022-11-13T06:53:53.584Z,9.85
2022-11-13T06:56:21.139Z,9.82
2022-11-13T06:58:47.719Z,9.81
2022-11-13T07:01:19.272Z,9.80
2022-11-13T07:03:45.928Z,9.78
2022-11-13T07:06:15.152Z,9.77
2022-11-13T07:08:42.483Z,9.77
2022-11-13T07:11:15.699Z,9.76
2022-11-13T07:13:42.862Z,9.78
2022-11-13T07:16:17.031Z,9.79
2022-11-13T07:18:51.177Z,9.79
2022-11-13T07:21:17.554Z,9.84
2022-11-13T07:23:48.112Z,9.84
2022-11-13T07:26:14.595Z,9.87
2022-11-13T07:28:41.129Z,9.91
2022-11-13T07:31:07.993Z,9.92
2022-11-13T07:33:34.454Z,9.92
2022-11-13T07:36:01.306Z,9.95
2022-11-13T07:38:28.063Z,9.97
2022-11-13T07:40:54.935Z,10.00
2022-11-13T07:43:21.330Z,10.05
2022-11-13T07:45:47.715Z,10.09
2022-11-13T07:48:14.139Z,10.13
2022-11-13T07:50:40.709Z,10.19
2022-11-13T07:53:08.723Z,10.24
2022-11-13T07:55:35.945Z,10.28
2022-11-13T07:58:03.353Z,10.33
2022-11-13T08:00:31.319Z,10.38
2022-11-13T08:02:57.908Z,10.43
2022-11-13T08:05:25.577Z,10.48
2022-11-13T08:07:52.912Z,10.54
2022-11-13T08:10:20.705Z,10.58
2022-11-13T08:12:47.235Z,10.61
2022-11-13T08:15:14.396Z,10.65
2022-11-13T08:17:41.299Z,10.69
2022-11-13T08:20:08.977Z,10.75
2022-11-13T08:22:35.405Z,10.81
2022-11-13T08:25:01.764Z,10.89
2022-11-13T08:27:28.815Z,10.95
2022-11-13T08:29:55.254Z,11.04
2022-11-13T08:32:22.885Z,11.13
2022-11-13T08:34:49.348Z,11.21
2022-11-13T08:37:16.248Z,11.30
2022-11-13T08:39:42.625Z,11.39
2022-11-13T08:42:09.181Z,11.48
2022-11-13T08:44:35.530Z,11.58
2022-11-13T08:47:02.025Z,11.68
2022-11-13T08:49:28.403Z,11.77
2022-11-13T08:51:54.766Z,11.88
2022-11-13T08:54:21.134Z,11.98
2022-11-13T08:56:52.963Z,12.08
2022-11-13T08:59:23.598Z,12.19
2022-11-13T09:01:50.625Z,12.30
2022-11-13T09:04:17.010Z,12.40
2022-11-13T09:06:43.436Z,12.50
2022-11-13T09:09:10.132Z,12.60
2022-11-13T09:11:36.577Z,12.72
2022-11-13T09:14:02.897Z,12.82
2022-11-13T09:16:29.363Z,12.92
2022-11-13T09:18:55.693Z,13.03
2022-11-13T09:21:22.259Z,13.15
2022-11-13T09:23:48.817Z,13.27
2022-11-13T09:26:15.330Z,13.37
2022-11-13T09:28:41.756Z,13.49
2022-11-13T09:31:08.377Z,13.61
2022-11-13T09:33:35.515Z,13.73
2022-11-13T09:36:02.776Z,13.85
2022-11-13T09:38:32.474Z,13.97
2022-11-13T09:41:05.375Z,14.10
2022-11-13T09:43:40.839Z,14.21
2022-11-13T09:46:30.400Z,14.34
2022-11-13T09:49:02.573Z,14.51
2022-11-13T09:51:33.584Z,14.62
2022-11-13T09:54:04.962Z,14.73
2022-11-13T09:56:35.799Z,14.86
2022-11-13T09:59:29.019Z,14.95
2022-11-13T10:02:20.972Z,15.06
2022-11-13T10:05:19.794Z,15.19
2022-11-13T10:08:05.917Z,15.31
2022-11-13T10:10:44.207Z,15.40
2022-11-13T10:13:14.592Z,15.52
2022-11-13T10:15:44.958Z,15.63
2022-11-13T10:18:27.030Z,15.71
2022-11-13T10:20:57.970Z,15.83
2022-11-13T10:23:35.103Z,15.90
2022-11-13T10:26:29.556Z,16.01
2022-11-13T10:29:11.733Z,16.13
2022-11-13T10:31:50.249Z,16.24
2022-11-13T10:34:17.916Z,16.38
2022-11-13T10:37:05.949Z,16.53
2022-11-13T10:39:41.795Z,16.63
2022-11-13T10:42:31.608Z,16.74
2022-11-13T10:45:00.564Z,16.84
2022-11-13T10:48:01.975Z,16.93
2022-11-13T10:50:31.133Z,17.05
2022-11-13T10:52:57.954Z,17.17
2022-11-13T10:55:41.563Z,17.24
2022-11-13T10:58:13.606Z,17.33
2022-11-13T11:00:44.502Z,17.47
2022-11-13T11:03:17.927Z,17.56
2022-11-13T11:05:59.595Z,17.64
2022-11-13T11:08:33.754Z,17.77
2022-11-13T11:11:21.237Z,17.87
2022-11-13T11:13:51.244Z,17.97
2022-11-13T11:16:23.698Z,18.04
2022-11-13T11:18:57.953Z,18.15
2022-11-13T11:21:34.994Z,18.23
2022-11-13T11:24:34.749Z,18.33
2022-11-13T11:27:23.110Z,18.43
2022-11-13T11:29:53.216Z,18.55
2022-11-13T11:32:33.577Z,18.63
2022-11-13T11:35:14.616Z,18.68
2022-11-13T11:38:07.549Z,18.75
2022-11-13T11:40:42.405Z,18.83
2022-11-13T11:43:34.526Z,18.90
2022-11-13T11:46:05.167Z,18.99
2022-11-13T11:48:33.142Z,19.07
2022-11-13T11:51:05.526Z,19.12
2022-11-13T11:53:45.800Z,19.17
2022-11-13T11:56:33.550Z,19.25
2022-11-13T11:59:22.497Z,19.29
2022-11-13T12:02:28.914Z,19.34
2022-11-13T12:05:02.768Z,19.40
2022-11-13T12:07:29.548Z,19.47
2022-11-13T12:10:04.253Z,19.51
2022-11-13T12:12:49.033Z,19.55
2022-11-13T12:15:23.557Z,19.61
2022-11-13T12:18:22.355Z,19.62
2022-11-13T12:21:07.901Z,19.69
2022-11-13T12:23:35.747Z,19.79
2022-11-13T12:26:23.543Z,19.82
2022-11-13T12:29:10.999Z,19.88
2022-11-13T12:31:59.261Z,19.93
2022-11-13T12:34:35.421Z,19.95
2022-11-13T12:37:10.689Z,20.00
2022-11-13T12:39:43.210Z,20.07
2022-11-13T12:42:18.006Z,20.10
2022-11-13T12:45:00.503Z,20.13
2022-11-13T12:47:27.369Z,20.21
2022-11-13T12:50:05.565Z,20.23
2022-11-13T12:52:31.916Z,20.31
2022-11-13T12:55:07.385Z,20.32
2022-11-13T12:57:33.853Z,20.39
2022-11-13T13:00:28.473Z,20.39
2022-11-13T13:03:11.322Z,20.46
2022-11-13T13:06:16.607Z,20.47
2022-11-13T13:09:20.729Z,20.51
2022-11-13T13:12:13.596Z,20.57
2022-11-13T13:15:04.125Z,20.61
2022-11-13T13:17:30.573Z,20.66
2022-11-13T13:20:02.288Z,20.65
2022-11-13T13:22:33.121Z,20.68
2022-11-13T13:25:04.174Z,20.69
2022-11-13T13:27:37.491Z,20.71
2022-11-13T13:30:26.205Z,20.72
2022-11-13T13:33:20.728Z,20.72
2022-11-13T13:35:57.646Z,20.76
2022-11-13T13:38:26.730Z,20.78
2022-11-13T13:41:17.147Z,20.79
2022-11-13T13:44:14.554Z,20.78
2022-11-13T13:46:41.786Z,20.83
2022-11-13T13:49:14.498Z,20.82
2022-11-13T13:51:44.183Z,20.83
2022-11-13T13:54:22.348Z,20.81
2022-11-13T13:56:49.346Z,20.84
2022-11-13T13:59:22.203Z,20.83
2022-11-13T14:01:58.317Z,20.81
2022-11-13T14:04:27.884Z,20.85
2022-11-13T14:06:56.968Z,20.84
2022-11-13T14:09:28.380Z,20.83
2022-11-13T14:12:09.607Z,20.82
2022-11-13T14:14:39.516Z,20.82
2022-11-13T14:17:07.070Z,20.83
2022-11-13T14:19:33.815Z,20.84
2022-11-13T14:22:02.781Z,20.83
2022-11-13T14:24:34.364Z,20.84
2022-11-13T14:27:07.369Z,20.83
2022-11-13T14:30:02.238Z,20.81
2022-11-13T14:32:31.994Z,20.84
2022-11-13T14:35:01.733Z,20.84
2022-11-13T14:37:44.690Z,20.80
2022-11-13T14:40:23.232Z,20.77
2022-11-13T14:42:59.885Z,20.79
2022-11-13T14:45:33.002Z,20.78
2022-11-13T14:48:01.998Z,20.75
2022-11-13T14:50:35.480Z,20.66
2022-11-13T14:53:07.997Z,20.60
2022-11-13T14:55:39.131Z,20.52
2022-11-13T14:58:05.983Z,20.43
2022-11-13T15:00:35.238Z,20.32
2022-11-13T15:03:03.764Z,20.22
2022-11-13T15:05:30.402Z,20.15
2022-11-13T15:07:57.429Z,20.09
2022-11-13T15:10:27.681Z,19.97
2022-11-13T15:12:54.433Z,19.86
2022-11-13T15:15:27.007Z,19.74
2022-11-13T15:17:54.592Z,19.65
2022-11-13T15:20:28.709Z,19.54
2022-11-13T15:22:57.103Z,19.49
2022-11-13T15:25:25.162Z,19.44
2022-11-13T15:27:53.295Z,19.40
2022-11-13T15:30:20.190Z,19.37
2022-11-13T15:32:48.005Z,19.31
2022-11-13T15:35:18.002Z,19.21
2022-11-13T15:37:45.240Z,19.15
2022-11-13T15:40:13.079Z,19.07
2022-11-13T15:42:40.897Z,18.96
2022-11-13T15:45:12.852Z,18.85
2022-11-13T15:47:39.566Z,18.73
2022-11-13T15:50:16.574Z,18.58
2022-11-13T15:52:49.025Z,18.41
2022-11-13T15:55:30.463Z,18.25
2022-11-13T15:57:58.443Z,18.11
2022-11-13T16:00:27.314Z,17.96
2022-11-13T16:02:56.484Z,17.81
2022-11-13T16:05:29.178Z,17.63
2022-11-13T16:07:56.650Z,17.52
2022-11-13T16:10:25.086Z,17.37
2022-11-13T16:12:52.824Z,17.27
2022-11-13T16:15:19.925Z,17.15
2022-11-13T16:17:49.345Z,17.02
2022-11-13T16:20:18.819Z,16.94
2022-11-13T16:22:45.762Z,16.87
2022-11-13T16:25:18.707Z,16.79
2022-11-13T16:27:45.968Z,16.73
2022-11-13T16:30:16.990Z,16.66
2022-11-13T16:32:43.497Z,16.59
2022-11-13T16:35:19.924Z,16.48
2022-11-13T16:37:46.428Z,16.41
2022-11-13T16:40:26.561Z,16.32
2022-11-13T16:42:53.617Z,16.32
2022-11-13T16:45:21.023Z,16.31
2022-11-13T16:47:47.797Z,16.32
2022-11-13T16:50:26.825Z,16.33
2022-11-13T16:52:53.314Z,16.36
2022-11-13T16:55:19.670Z,16.40
2022-11-13T16:57:46.128Z,16.45
2022-11-13T17:00:16.167Z,16.48
2022-11-13T17:02:43.122Z,16.52
2022-11-13T17:05:14.198Z,16.53
2022-11-13T17:07:41.315Z,16.57
2022-11-13T17:10:32.403Z,16.58
2022-11-13T17:13:00.059Z,16.61
2022-11-13T17:15:26.454Z,16.63
2022-11-13T17:17:57.048Z,16.63
2022-11-13T17:20:26.106Z,16.64
2022-11-13T17:22:52.468Z,16.65
2022-11-13T17:25:20.392Z,16.63
2022-11-13T17:27:47.138Z,16.62
2022-11-13T17:30:13.984Z,16.62
2022-11-13T17:32:40.508Z,16.60
2022-11-13T17:35:07.363Z,16.56
2022-11-13T17:37:33.911Z,16.52
2022-11-13T17:40:00.334Z,16.49
2022-11-13T17:42:28.821Z,16.43
2022-11-13T17:44:55.473Z,16.37
2022-11-13T17:47:22.009Z,16.36
2022-11-13T17:49:48.374Z,16.27
2022-11-13T17:52:14.833Z,16.17
2022-11-13T17:54:41.343Z,16.08
2022-11-13T17:57:10.449Z,15.99
2022-11-13T17:59:36.903Z,15.89
2022-11-13T18:02:03.393Z,15.78
2022-11-13T18:04:29.762Z,15.68
2022-11-13T18:06:56.692Z,15.59
2022-11-13T18:09:23.059Z,15.51
2022-11-13T18:11:49.370Z,15.45
2022-11-13T18:14:16.119Z,15.38
2022-11-13T18:16:42.447Z,15.34
2022-11-13T18:19:09.514Z,15.30
2022-11-13T18:21:37.416Z,15.27
2022-11-13T18:24:07.424Z,15.26
2022-11-13T18:26:36.660Z,15.26
2022-11-13T18:29:03.856Z,15.23
2022-11-13T18:31:30.567Z,15.22
2022-11-13T18:34:02.594Z,15.17
2022-11-13T18:36:29.166Z,15.18
2022-11-13T18:38:58.307Z,15.13
2022-11-13T18:41:25.692Z,15.09
2022-11-13T18:43:52.275Z,15.04
2022-11-13T18:46:21.018Z,14.98
2022-11-13T18:48:48.650Z,14.93
2022-11-13T18:51:21.108Z,14.87
2022-11-13T18:53:49.287Z,14.84
2022-11-13T18:56:24.850Z,14.80
2022-11-13T18:58:55.501Z,14.80
2022-11-13T19:01:27.967Z,14.77
2022-11-13T19:06:46.483Z,14.80
2022-11-13T19:09:16.329Z,14.79
2022-11-13T19:11:43.929Z,14.78
2022-11-13T19:14:14.323Z,14.75
2022-11-13T19:16:42.324Z,14.73
2022-11-13T19:19:21.508Z,14.69
2022-11-13T19:21:48.156Z,14.68
2022-11-13T19:24:15.166Z,14.63
2022-11-13T19:26:43.479Z,14.59
2022-11-13T19:29:10.601Z,14.57
2022-11-13T19:31:37.041Z,14.52
2022-11-13T19:34:07.538Z,14.48
2022-11-13T19:36:34.693Z,14.45
2022-11-13T19:39:01.347Z,14.42
2022-11-13T19:41:29.138Z,14.37
2022-11-13T19:43:58.190Z,14.32
2022-11-13T19:46:24.495Z,14.28
2022-11-13T19:48:52.110Z,14.22
2022-11-13T19:51:20.630Z,14.17
2022-11-13T19:53:47.443Z,14.10
2022-11-13T19:56:15.845Z,14.03
2022-11-13T19:58:44.230Z,13.96
2022-11-13T20:01:12.958Z,13.91
2022-11-13T20:03:39.967Z,13.84
2022-11-13T20:06:07.956Z,13.76
2022-11-13T20:08:35.410Z,13.71
2022-11-13T20:11:07.606Z,13.63
2022-11-13T20:13:36.503Z,13.58
2022-11-13T20:16:07.570Z,13.48
2022-11-13T20:18:34.197Z,13.43
2022-11-13T20:21:00.962Z,13.38
2022-11-13T20:23:28.082Z,13.36
2022-11-13T20:25:56.519Z,13.35
2022-11-13T20:28:24.153Z,13.35
2022-11-13T20:30:52.431Z,13.37
2022-11-13T20:33:22.599Z,13.39
2022-11-13T20:35:55.698Z,13.41
2022-11-13T20:38:22.194Z,13.43
2022-11-13T20:40:48.809Z,13.46
2022-11-13T20:43:17.062Z,13.46
2022-11-13T20:45:43.665Z,13.48
2022-11-13T20:48:10.315Z,13.48
2022-11-13T20:50:37.384Z,13.48
2022-11-13T20:53:05.143Z,13.47
2022-11-13T20:55:31.815Z,13.48
2022-11-13T20:57:58.212Z,13.47
2022-11-13T21:00:24.700Z,13.47
2022-11-13T21:02:52.571Z,13.45
2022-11-13T21:05:18.925Z,13.44
2022-11-13T21:07:45.580Z,13.44
2022-11-13T21:10:11.899Z,13.42
2022-11-13T21:12:38.225Z,13.40
2022-11-13T21:15:04.980Z,13.37
2022-11-13T21:17:31.323Z,13.33
2022-11-13T21:19:57.979Z,13.31
2022-11-13T21:22:24.542Z,13.29
2022-11-13T21:24:50.991Z,13.28
2022-11-13T21:27:17.459Z,13.27
2022-11-13T21:29:43.966Z,13.26
2022-11-13T21:32:10.482Z,13.24
2022-11-13T21:34:37.794Z,13.23
2022-11-13T21:37:04.491Z,13.22
2022-11-13T21:39:31.132Z,13.19
2022-11-13T21:41:57.864Z,13.18
2022-11-13T21:44:24.362Z,13.17
2022-11-13T21:46:50.850Z,13.13
2022-11-13T21:49:17.165Z,13.11
2022-11-13T21:51:43.764Z,13.09
2022-11-13T21:54:10.238Z,13.05
2022-11-13T21:56:38.259Z,13.02
2022-11-13T21:59:05.707Z,12.96
2022-11-13T22:01:37.751Z,12.90
2022-11-13T22:04:04.792Z,12.83
2022-11-13T22:06:33.018Z,12.77
2022-11-13T22:09:04.529Z,12.68
2022-11-13T22:11:32.954Z,12.65
2022-11-13T22:14:00.267Z,12.60
2022-11-13T22:16:31.899Z,12.55
2022-11-13T22:19:00.146Z,12.53
2022-11-13T22:21:29.078Z,12.50
2022-11-13T22:23:56.717Z,12.48
2022-11-13T22:26:24.813Z,12.45
2022-11-13T22:28:53.338Z,12.43
2022-11-13T22:31:21.063Z,12.43
2022-11-13T22:33:51.402Z,12.44
2022-11-13T22:36:25.910Z,12.41
2022-11-13T22:38:52.843Z,12.39
2022-11-13T22:41:24.729Z,12.37
2022-11-13T22:43:53.594Z,12.35
2022-11-13T22:46:22.499Z,12.35
2022-11-13T22:48:50.514Z,12.34
2022-11-13T22:51:19.675Z,12.34
2022-11-13T22:53:56.501Z,12.33
2022-11-13T22:56:24.862Z,12.36
2022-11-13T22:58:53.988Z,12.35
2022-11-13T23:01:23.066Z,12.36
2022-11-13T23:03:51.145Z,12.34
2022-11-13T23:06:23.634Z,12.34
2022-11-13T23:08:50.573Z,12.32
2022-11-13T23:11:18.866Z,12.30
2022-11-13T23:13:48.801Z,12.29
2022-11-13T23:16:16.041Z,12.26
2022-11-13T23:18:42.808Z,12.25
2022-11-13T23:21:10.862Z,12.22
2022-11-13T23:23:37.688Z,12.20
2022-11-13T23:26:06.676Z,12.16
2022-11-13T23:28:33.331Z,12.10
2022-11-13T23:31:01.986Z,12.06
2022-11-13T23:33:28.673Z,12.01
2022-11-13T23:35:55.118Z,11.98
2022-11-13T23:38:24.233Z,11.90
2022-11-13T23:40:58.454Z,11.78
2022-11-13T23:43:41.674Z,11.73
2022-11-13T23:46:12.175Z,11.65
2022-11-13T23:48:40.158Z,11.56
2022-11-13T23:51:07.241Z,11.51
2022-11-13T23:53:33.700Z,11.45
2022-11-13T23:56:00.295Z,11.41
2022-11-13T23:58:27.165Z,11.35
